createdAt,value
2019-04-01T00:01:24.579Z,94.80
2019-04-01T00:03:51.971Z,94.80
2019-04-01T00:06:19.274Z,94.80
2019-04-01T00:08:46.575Z,95.50
2019-04-01T00:11:14.096Z,94.70
2019-04-01T00:13:41.580Z,94.80
2019-04-01T00:16:09.143Z,94.80
2019-04-01T00:18:36.723Z,95.00
2019-04-01T00:21:04.132Z,94.80
2019-04-01T00:23:31.512Z,95.20
2019-04-01T00:25:58.856Z,95.30
2019-04-01T00:28:26.161Z,95.40
2019-04-01T00:30:53.801Z,95.50
2019-04-01T00:33:21.336Z,95.30
2019-04-01T00:35:48.765Z,95.30
2019-04-01T00:38:16.440Z,94.80
2019-04-01T00:40:43.878Z,95.00
2019-04-01T00:43:45.690Z,94.50
2019-04-01T00:46:15.261Z,94.50
2019-04-01T00:48:43.240Z,94.50
2019-04-01T00:51:10.635Z,94.40
2019-04-01T00:53:38.017Z,94.20
2019-04-01T00:56:05.629Z,94.30
2019-04-01T00:58:33.041Z,94.40
2019-04-01T01:01:00.680Z,94.60
2019-04-01T01:03:28.087Z,94.90
2019-04-01T01:05:55.791Z,95.10
2019-04-01T01:08:23.366Z,95.10
2019-04-01T01:10:50.686Z,94.80
2019-04-01T01:13:18.361Z,94.80
2019-04-01T01:15:45.652Z,95.20
2019-04-01T01:18:13.085Z,94.70
2019-04-01T01:20:40.618Z,94.60
2019-04-01T01:23:07.961Z,94.70
2019-04-01T01:25:35.425Z,95.00
2019-04-01T01:28:02.748Z,95.10
2019-04-01T01:30:30.343Z,94.80
2019-04-01T01:32:57.753Z,94.80
2019-04-01T01:35:25.076Z,94.70
2019-04-01T01:37:52.407Z,95.50
2019-04-01T01:40:19.814Z,95.60
2019-04-01T01:42:47.405Z,94.90
2019-04-01T01:45:15.028Z,95.20
2019-04-01T01:47:42.518Z,94.90
2019-04-01T01:50:09.819Z,94.90
2019-04-01T01:52:37.166Z,95.10
2019-04-01T01:55:04.590Z,95.10
2019-04-01T01:57:32.279Z,94.90
2019-04-01T01:59:59.846Z,95.30
2019-04-01T02:02:27.156Z,95.30
2019-04-01T02:04:54.845Z,95.50
2019-04-01T02:07:22.446Z,95.40
2019-04-01T02:09:49.865Z,95.20
2019-04-01T02:12:17.182Z,95.60
2019-04-01T02:14:45.085Z,95.60
2019-04-01T02:17:12.402Z,95.20
2019-04-01T02:19:39.816Z,95.50
2019-04-01T02:22:07.187Z,95.70
2019-04-01T02:24:35.119Z,95.50
2019-04-01T02:27:02.516Z,95.60
2019-04-01T02:29:30.077Z,95.60
2019-04-01T02:31:57.389Z,96.10
2019-04-01T02:34:24.868Z,96.20
2019-04-01T02:36:52.263Z,96.60
2019-04-01T02:39:19.601Z,96.20
2019-04-01T02:41:47.317Z,96.00
2019-04-01T02:44:14.995Z,96.10
2019-04-01T02:46:42.454Z,96.00
2019-04-01T02:49:09.842Z,96.00
2019-04-01T02:51:37.169Z,96.30
2019-04-01T02:54:04.856Z,96.60
2019-04-01T02:56:32.265Z,96.70
2019-04-01T02:58:59.661Z,96.40
2019-04-01T03:01:26.987Z,96.30
2019-04-01T03:03:54.372Z,96.30
2019-04-01T03:06:22.050Z,96.80
2019-04-01T03:08:49.425Z,96.60
2019-04-01T03:11:16.823Z,96.60
2019-04-01T03:13:44.246Z,96.60
2019-04-01T03:16:11.547Z,96.50
2019-04-01T03:18:39.212Z,96.60
2019-04-01T03:21:06.879Z,96.70
2019-04-01T03:23:34.448Z,96.60
2019-04-01T03:26:01.862Z,96.70
2019-04-01T03:28:29.274Z,96.60
2019-04-01T03:30:56.649Z,96.50
2019-04-01T03:33:24.342Z,96.50
2019-04-01T03:35:51.740Z,96.90
2019-04-01T03:38:19.164Z,97.00
2019-04-01T03:40:46.545Z,96.80
2019-04-01T03:43:14.348Z,96.80
2019-04-01T03:45:41.849Z,97.10
2019-04-01T03:48:09.148Z,97.00
2019-04-01T03:50:36.583Z,97.10
2019-04-01T03:53:04.031Z,97.40
2019-04-01T03:55:31.692Z,97.20
2019-04-01T03:57:59.179Z,97.30
2019-04-01T04:00:26.574Z,97.40
2019-04-01T04:02:53.995Z,97.40
2019-04-01T04:05:21.445Z,97.20
2019-04-01T04:07:49.201Z,97.60
2019-04-01T04:10:16.578Z,97.60
2019-04-01T04:12:43.900Z,97.20
2019-04-01T04:15:11.520Z,97.20
2019-04-01T04:17:39.198Z,97.30
2019-04-01T04:20:06.929Z,97.70
2019-04-01T04:22:34.432Z,98.00
2019-04-01T04:25:01.867Z,98.10
2019-04-01T04:27:29.659Z,98.10
2019-04-01T04:29:57.315Z,98.10
2019-04-01T04:32:24.647Z,97.90
2019-04-01T04:34:56.908Z,98.00
2019-04-01T04:37:21.535Z,98.20
2019-04-01T04:39:48.895Z,98.30
2019-04-01T04:42:16.215Z,98.30
2019-04-01T04:44:44.024Z,98.40
2019-04-01T04:47:11.983Z,98.30
2019-04-01T04:49:39.487Z,98.10
2019-04-01T04:52:06.902Z,98.20
2019-04-01T04:54:34.318Z,98.50
2019-04-01T04:57:01.651Z,98.40
2019-04-01T04:59:29.047Z,98.50
2019-04-01T05:01:56.614Z,98.60
2019-04-01T05:04:23.948Z,98.40
2019-04-01T05:06:51.654Z,99.10
2019-04-01T05:09:19.067Z,98.70
2019-04-01T05:11:46.400Z,99.10
2019-04-01T05:14:13.786Z,99.10
2019-04-01T05:16:41.235Z,99.30
2019-04-01T05:19:08.984Z,99.20
2019-04-01T05:21:36.659Z,99.30
2019-04-01T05:24:04.018Z,99.20
2019-04-01T05:26:32.478Z,99.30
2019-04-01T05:29:01.261Z,99.30
2019-04-01T05:31:31.814Z,99.30
2019-04-01T05:34:00.957Z,99.30
2019-04-01T05:36:28.520Z,99.90
2019-04-01T05:38:56.418Z,99.90
2019-04-01T05:41:23.771Z,99.30
2019-04-01T05:43:51.559Z,99.40
2019-04-01T05:46:18.862Z,99.20
2019-04-01T05:48:46.289Z,99.30
2019-04-01T05:51:13.587Z,99.20
2019-04-01T05:53:41.031Z,99.30
2019-04-01T05:56:08.867Z,99.70
2019-04-01T05:58:36.210Z,99.90
2019-04-01T06:01:10.385Z,99.20
2019-04-01T06:03:38.052Z,99.30
2019-04-01T06:06:05.924Z,99.50
2019-04-01T06:08:33.209Z,99.40
2019-04-01T06:11:00.552Z,99.60
2019-04-01T06:13:28.161Z,99.20
2019-04-01T06:15:56.734Z,99.30
2019-04-01T06:18:24.142Z,99.40
2019-04-01T06:20:52.027Z,99.30
2019-04-01T06:23:19.438Z,99.20
2019-04-01T06:25:46.840Z,99.00
2019-04-01T06:28:14.361Z,99.20
2019-04-01T06:30:41.793Z,98.90
2019-04-01T06:33:09.211Z,99.30
2019-04-01T06:35:36.712Z,98.70
2019-04-01T06:38:04.071Z,98.60
2019-04-01T06:40:31.374Z,98.00
2019-04-01T06:42:58.838Z,98.20
2019-04-01T06:45:26.430Z,97.70
2019-04-01T06:47:53.853Z,97.60
2019-04-01T06:50:21.336Z,97.80
2019-04-01T06:52:48.659Z,97.50
2019-04-01T06:55:16.067Z,97.30
2019-04-01T06:57:43.422Z,97.20
2019-04-01T07:00:11.457Z,97.10
2019-04-01T07:02:38.905Z,97.60
2019-04-01T07:05:07.093Z,97.50
2019-04-01T07:07:34.774Z,96.90
2019-04-01T07:10:02.640Z,96.50
2019-04-01T07:12:30.019Z,96.70
2019-04-01T07:14:57.487Z,96.90
2019-04-01T07:17:24.966Z,97.00
2019-04-01T07:19:52.351Z,96.60
2019-04-01T07:22:20.072Z,96.10
2019-04-01T07:24:47.401Z,96.30
2019-04-01T07:27:15.042Z,95.90
2019-04-01T07:29:42.446Z,96.20
2019-04-01T07:32:14.734Z,95.90
2019-04-01T07:34:42.178Z,96.10
2019-04-01T07:37:10.990Z,95.90
2019-04-01T07:39:38.565Z,95.50
2019-04-01T07:42:05.970Z,95.40
2019-04-01T07:44:33.263Z,95.40
2019-04-01T07:47:05.564Z,94.80
2019-04-01T07:49:33.225Z,94.90
2019-04-01T07:52:00.563Z,94.90
2019-04-01T07:54:28.243Z,95.10
2019-04-01T07:56:55.733Z,94.50
2019-04-01T07:59:23.054Z,93.70
2019-04-01T08:01:52.823Z,93.80
2019-04-01T08:04:23.699Z,93.70
2019-04-01T08:06:53.682Z,93.90
2019-04-01T08:09:21.216Z,94.00
2019-04-01T08:11:50.204Z,93.60
2019-04-01T08:14:17.904Z,93.20
2019-04-01T08:16:45.249Z,93.20
2019-04-01T08:19:12.756Z,93.60
2019-04-01T08:21:40.311Z,93.30
2019-04-01T08:24:07.723Z,93.70
2019-04-01T08:26:35.091Z,94.00
2019-04-01T08:29:02.696Z,93.40
2019-04-01T08:31:30.372Z,93.20
2019-04-01T08:33:57.851Z,93.10
2019-04-01T08:36:25.267Z,92.60
2019-04-01T08:38:55.471Z,92.60
2019-04-01T08:41:22.601Z,92.60
2019-04-01T08:43:50.151Z,92.90
2019-04-01T08:46:17.670Z,92.50
2019-04-01T08:48:45.080Z,92.20
2019-04-01T08:51:12.503Z,92.20
2019-04-01T08:53:39.965Z,92.40
2019-04-01T08:56:07.366Z,92.30
2019-04-01T08:58:36.584Z,91.70
2019-04-01T09:01:04.289Z,92.10
2019-04-01T09:03:33.085Z,91.50
2019-04-01T09:06:00.623Z,91.30
2019-04-01T09:08:28.875Z,92.00
2019-04-01T09:10:56.994Z,91.00
2019-04-01T09:13:24.842Z,90.70
2019-04-01T09:15:52.267Z,90.80
2019-04-01T09:18:19.909Z,90.70
2019-04-01T09:20:47.511Z,90.70
2019-04-01T09:23:15.114Z,90.20
2019-04-01T09:25:42.493Z,89.50
2019-04-01T09:28:10.088Z,88.30
2019-04-01T09:30:37.485Z,83.60
2019-04-01T09:33:04.907Z,68.90
2019-04-01T09:35:32.612Z,59.70
2019-04-01T09:38:00.033Z,54.30
2019-04-01T09:40:27.397Z,53.50
2019-04-01T09:42:54.839Z,50.20
2019-04-01T09:45:22.540Z,51.20
2019-04-01T09:47:49.987Z,48.60
2019-04-01T09:50:17.950Z,46.80
2019-04-01T09:52:45.305Z,46.50
2019-04-01T09:55:13.150Z,47.50
2019-04-01T09:57:40.555Z,47.80
2019-04-01T10:00:10.359Z,46.70
2019-04-01T10:02:37.802Z,46.20
2019-04-01T10:05:05.497Z,47.00
2019-04-01T10:07:33.072Z,45.40
2019-04-01T10:10:00.445Z,44.40
2019-04-01T10:12:27.729Z,45.30
2019-04-01T10:14:55.114Z,44.10
2019-04-01T10:17:24.958Z,43.20
2019-04-01T10:19:52.344Z,43.40
2019-04-01T10:22:19.937Z,41.80
2019-04-01T10:24:47.529Z,40.20
2019-04-01T10:27:14.948Z,42.10
2019-04-01T10:29:42.463Z,42.70
2019-04-01T10:32:09.893Z,39.60
2019-04-01T10:34:37.504Z,38.60
2019-04-01T10:37:04.926Z,39.20
2019-04-01T10:39:32.662Z,39.10
2019-04-01T10:41:59.989Z,37.00
2019-04-01T10:44:27.652Z,38.30
2019-04-01T10:46:55.088Z,39.60
2019-04-01T10:49:22.551Z,38.50
2019-04-01T10:51:50.614Z,38.70
2019-04-01T10:54:18.004Z,36.50
2019-04-01T10:56:45.456Z,38.00
2019-04-01T10:59:13.475Z,39.10
2019-04-01T11:01:40.825Z,37.00
2019-04-01T11:04:08.273Z,36.20
2019-04-01T11:06:35.681Z,33.70
2019-04-01T11:09:05.167Z,35.20
2019-04-01T11:11:32.755Z,34.00
2019-04-01T11:14:00.437Z,33.50
2019-04-01T11:16:31.474Z,31.90
2019-04-01T11:18:58.212Z,32.60
2019-04-01T11:21:26.012Z,32.20
2019-04-01T11:23:53.428Z,32.20
2019-04-01T11:26:20.822Z,31.40
2019-04-01T11:28:48.143Z,32.40
2019-04-01T11:31:15.433Z,32.90
2019-04-01T11:33:43.125Z,33.90
2019-04-01T11:36:10.570Z,32.00
2019-04-01T11:38:37.929Z,29.20
2019-04-01T11:41:05.636Z,28.90
2019-04-01T11:43:35.471Z,29.30
2019-04-01T11:46:02.573Z,28.70
2019-04-01T11:48:33.858Z,28.90
2019-04-01T11:51:01.624Z,29.50
2019-04-01T11:53:28.976Z,30.00
2019-04-01T11:55:56.332Z,29.20
2019-04-01T11:58:23.714Z,28.80
2019-04-01T12:00:51.019Z,28.20
2019-04-01T12:03:19.076Z,29.60
2019-04-01T12:05:47.267Z,30.20
2019-04-01T12:08:14.691Z,30.30
2019-04-01T12:10:42.093Z,30.30
2019-04-01T12:13:09.425Z,28.70
2019-04-01T12:15:36.758Z,29.20
2019-04-01T12:18:04.496Z,28.30
2019-04-01T12:20:31.806Z,28.60
2019-04-01T12:22:59.256Z,27.60
2019-04-01T12:25:26.659Z,27.20
2019-04-01T12:27:54.052Z,26.90
2019-04-01T12:30:21.504Z,27.60
2019-04-01T12:32:49.750Z,26.80
2019-04-01T12:35:17.325Z,28.50
2019-04-01T12:37:45.785Z,28.40
2019-04-01T12:40:13.566Z,27.70
2019-04-01T12:42:41.143Z,29.20
2019-04-01T12:45:08.589Z,27.70
2019-04-01T12:47:35.963Z,28.10
2019-04-01T12:50:04.576Z,26.40
2019-04-01T12:52:32.197Z,27.40
2019-04-01T12:55:01.039Z,26.40
2019-04-01T12:57:28.581Z,26.30
2019-04-01T12:59:55.906Z,28.60
2019-04-01T13:02:23.363Z,29.90
2019-04-01T13:04:51.449Z,30.30
2019-04-01T13:07:19.902Z,27.90
2019-04-01T13:09:48.173Z,27.00
2019-04-01T13:12:15.588Z,28.50
2019-04-01T13:14:43.496Z,29.00
2019-04-01T13:17:11.462Z,28.80
2019-04-01T13:19:38.864Z,29.80
2019-04-01T13:22:06.193Z,27.70
2019-04-01T13:24:33.502Z,28.20
2019-04-01T13:27:01.545Z,28.00
2019-04-01T13:29:29.109Z,26.50
2019-04-01T13:31:56.426Z,25.20
2019-04-01T13:34:24.122Z,26.70
2019-04-01T13:36:51.518Z,26.70
2019-04-01T13:39:18.844Z,26.50
2019-04-01T13:41:46.145Z,24.60
2019-04-01T13:44:13.757Z,24.80
2019-04-01T13:46:41.059Z,24.20
2019-04-01T13:49:08.765Z,25.00
2019-04-01T13:51:36.157Z,24.80
2019-04-01T13:54:08.891Z,26.10
2019-04-01T13:56:33.060Z,26.90
2019-04-01T13:59:00.733Z,26.70
2019-04-01T14:01:28.059Z,28.30
2019-04-01T14:03:55.744Z,26.90
2019-04-01T14:06:23.338Z,27.60
2019-04-01T14:08:51.304Z,28.20
2019-04-01T14:11:18.881Z,28.80
2019-04-01T14:13:46.457Z,28.40
2019-04-01T14:16:13.792Z,28.60
2019-04-01T14:18:41.199Z,28.10
2019-04-01T14:21:16.423Z,28.50
2019-04-01T14:23:38.578Z,28.50
2019-04-01T14:26:05.938Z,26.50
2019-04-01T14:28:33.555Z,27.60
2019-04-01T14:31:00.861Z,28.20
2019-04-01T14:33:28.309Z,29.30
2019-04-01T14:35:55.617Z,28.00
2019-04-01T14:38:23.359Z,29.40
2019-04-01T14:40:51.046Z,27.80
2019-04-01T14:43:18.465Z,28.20
2019-04-01T14:45:46.135Z,28.60
2019-04-01T14:48:13.451Z,26.90
2019-04-01T14:50:41.091Z,26.80
2019-04-01T14:53:10.066Z,26.80
2019-04-01T14:55:37.738Z,27.70
2019-04-01T14:58:05.175Z,29.50
2019-04-01T15:00:32.732Z,29.30
2019-04-01T15:03:00.171Z,29.60
2019-04-01T15:05:27.577Z,28.90
2019-04-01T15:07:55.034Z,29.90
2019-04-01T15:10:22.469Z,29.20
2019-04-01T15:13:04.000Z,29.90
2019-04-01T15:15:19.404Z,30.20
2019-04-01T15:17:47.279Z,31.50
2019-04-01T15:20:17.014Z,31.60
2019-04-01T15:22:44.469Z,31.30
2019-04-01T15:25:11.912Z,32.10
2019-04-01T15:27:39.568Z,35.10
2019-04-01T15:30:07.409Z,37.00
2019-04-01T15:32:34.818Z,36.70
2019-04-01T15:35:02.135Z,36.70
2019-04-01T15:37:32.195Z,36.10
2019-04-01T15:39:59.275Z,37.30
2019-04-01T15:42:26.921Z,37.10
2019-04-01T15:44:54.600Z,37.50
2019-04-01T15:47:22.021Z,38.70
2019-04-01T15:49:49.649Z,38.00
2019-04-01T15:52:17.075Z,38.40
2019-04-01T15:54:44.504Z,37.80
2019-04-01T15:57:15.104Z,37.50
2019-04-01T15:59:41.608Z,37.90
2019-04-01T16:02:08.988Z,38.20
2019-04-01T16:04:37.216Z,37.30
2019-04-01T16:07:04.807Z,37.50
2019-04-01T16:09:32.255Z,37.90
2019-04-01T16:12:00.248Z,37.60
2019-04-01T16:14:27.589Z,37.30
2019-04-01T16:16:55.054Z,35.90
2019-04-01T16:19:23.477Z,35.30
2019-04-01T16:21:51.102Z,34.30
2019-04-01T16:24:18.778Z,34.70
2019-04-01T16:26:46.789Z,35.40
2019-04-01T16:29:14.637Z,34.10
2019-04-01T16:31:42.024Z,34.50
2019-04-01T16:34:09.479Z,36.30
2019-04-01T16:36:36.960Z,37.40
2019-04-01T16:39:06.669Z,38.20
2019-04-01T16:41:34.574Z,38.30
2019-04-01T16:44:02.206Z,38.70
2019-04-01T16:46:29.671Z,39.40
2019-04-01T16:48:57.096Z,39.40
2019-04-01T16:51:24.717Z,39.70
2019-04-01T16:53:55.837Z,40.60
2019-04-01T16:56:21.610Z,40.80
2019-04-01T16:58:49.022Z,40.70
2019-04-01T17:01:16.404Z,42.20
2019-04-01T17:03:43.886Z,42.60
2019-04-01T17:06:11.283Z,41.70
2019-04-01T17:08:42.138Z,41.60
2019-04-01T17:11:09.833Z,41.90
2019-04-01T17:13:37.233Z,41.90
2019-04-01T17:16:04.900Z,41.90
2019-04-01T17:18:33.017Z,42.40
2019-04-01T17:21:00.541Z,43.10
2019-04-01T17:23:28.512Z,43.30
2019-04-01T17:25:56.464Z,44.00
2019-04-01T17:28:23.848Z,43.50
2019-04-01T17:30:51.442Z,43.90
2019-04-01T17:33:19.224Z,44.20
2019-04-01T17:35:46.757Z,44.70
2019-04-01T17:38:14.256Z,45.30
2019-04-01T17:40:41.922Z,45.90
2019-04-01T17:43:09.773Z,45.70
2019-04-01T17:45:38.354Z,45.90
2019-04-01T17:48:06.754Z,45.80
2019-04-01T17:50:34.947Z,46.00
2019-04-01T17:53:04.161Z,46.30
2019-04-01T17:55:32.136Z,46.50
2019-04-01T17:57:59.673Z,47.10
2019-04-01T18:00:27.700Z,47.50
2019-04-01T18:02:55.532Z,48.40
2019-04-01T18:05:23.548Z,49.30
2019-04-01T18:07:51.083Z,48.00
2019-04-01T18:10:19.014Z,49.40
2019-04-01T18:12:46.651Z,50.40
2019-04-01T18:15:14.159Z,52.00
2019-04-01T18:17:41.854Z,51.00
2019-04-01T18:20:10.272Z,51.20
2019-04-01T18:22:37.853Z,51.10
2019-04-01T18:25:05.612Z,51.60
2019-04-01T18:27:33.089Z,52.20
2019-04-01T18:30:00.855Z,51.30
2019-04-01T18:32:28.345Z,52.00
2019-04-01T18:34:56.301Z,51.90
2019-04-01T18:37:24.261Z,51.90
2019-04-01T18:39:57.141Z,53.20
2019-04-01T18:42:26.798Z,52.20
2019-04-01T18:44:55.203Z,52.00
2019-04-01T18:47:22.658Z,52.80
2019-04-01T18:49:50.797Z,53.50
2019-04-01T18:52:18.650Z,54.30
2019-04-01T18:54:46.478Z,54.50
2019-04-01T18:57:14.200Z,55.90
2019-04-01T18:59:42.049Z,56.40
2019-04-01T19:02:09.638Z,57.00
2019-04-01T19:04:37.147Z,58.50
2019-04-01T19:07:04.879Z,57.00
2019-04-01T19:09:32.799Z,58.40
2019-04-01T19:12:04.195Z,61.50
2019-04-01T19:14:29.656Z,63.20
2019-04-01T19:16:57.368Z,64.20
2019-04-01T19:19:25.171Z,67.00
2019-04-01T19:21:53.085Z,68.80
2019-04-01T19:24:20.983Z,67.90
2019-04-01T19:26:50.179Z,67.90
2019-04-01T19:29:17.598Z,68.50
2019-04-01T19:31:44.964Z,70.10
2019-04-01T19:34:12.295Z,73.60
2019-04-01T19:36:39.985Z,76.60
2019-04-01T19:39:07.695Z,76.30
2019-04-01T19:41:35.407Z,79.10
2019-04-01T19:44:02.865Z,77.00
2019-04-01T19:46:30.629Z,79.00
2019-04-01T19:48:58.304Z,77.40
2019-04-01T19:51:25.998Z,81.20
2019-04-01T19:53:53.579Z,80.30
2019-04-01T19:56:21.270Z,81.70
2019-04-01T19:58:48.704Z,78.60
2019-04-01T20:01:16.108Z,80.80
2019-04-01T20:03:43.913Z,79.30
2019-04-01T20:06:11.379Z,79.30
2019-04-01T20:08:39.075Z,77.90
2019-04-01T20:11:06.806Z,82.60
2019-04-01T20:13:34.138Z,82.60
2019-04-01T20:16:01.604Z,83.30
2019-04-01T20:18:29.017Z,78.80
2019-04-01T20:20:56.480Z,81.30
2019-04-01T20:23:23.928Z,81.40
2019-04-01T20:25:51.513Z,82.50
2019-04-01T20:28:18.813Z,85.70
2019-04-01T20:30:46.415Z,83.40
2019-04-01T20:33:18.148Z,84.50
2019-04-01T20:35:43.805Z,84.90
2019-04-01T20:38:12.462Z,81.80
2019-04-01T20:40:39.917Z,84.20
2019-04-01T20:43:07.615Z,84.40
2019-04-01T20:45:34.970Z,82.70
2019-04-01T20:48:03.360Z,85.40
2019-04-01T20:50:32.027Z,83.90
2019-04-01T20:52:59.755Z,85.70
2019-04-01T20:55:27.210Z,87.00
2019-04-01T20:57:54.717Z,86.90
2019-04-01T21:00:22.259Z,85.60
2019-04-01T21:02:50.069Z,87.50
2019-04-01T21:05:18.281Z,86.10
2019-04-01T21:07:47.091Z,86.50
2019-04-01T21:10:14.930Z,86.00
2019-04-01T21:12:42.463Z,84.30
2019-04-01T21:15:10.813Z,84.90
2019-04-01T21:17:38.511Z,84.90
2019-04-01T21:20:10.809Z,86.50
2019-04-01T21:22:38.214Z,89.60
2019-04-01T21:25:06.036Z,88.60
2019-04-01T21:27:33.888Z,88.30
2019-04-01T21:30:01.591Z,88.20
2019-04-01T21:32:29.135Z,89.80
2019-04-01T21:34:58.172Z,90.20
2019-04-01T21:37:25.763Z,90.10
2019-04-01T21:39:53.528Z,90.40
2019-04-01T21:42:22.117Z,89.90
2019-04-01T21:44:49.929Z,91.00
2019-04-01T21:47:17.528Z,90.50
2019-04-01T21:49:44.993Z,90.90
2019-04-01T21:52:12.656Z,91.60
2019-04-01T21:54:40.074Z,91.60
2019-04-01T21:57:07.549Z,91.10
2019-04-01T21:59:35.217Z,91.20
2019-04-01T22:02:03.574Z,91.10
2019-04-01T22:04:30.964Z,91.00
2019-04-01T22:06:58.656Z,91.50
2019-04-01T22:09:26.163Z,91.60
2019-04-01T22:11:53.545Z,92.10
2019-04-01T22:14:20.928Z,92.10
2019-04-01T22:16:48.586Z,92.00
2019-04-01T22:19:16.305Z,92.70
2019-04-01T22:21:43.681Z,92.40
2019-04-01T22:24:11.116Z,92.50
2019-04-01T22:26:38.690Z,92.60
2019-04-01T22:29:06.121Z,92.50
2019-04-01T22:31:33.521Z,92.30
2019-04-01T22:34:00.856Z,92.60
2019-04-01T22:36:31.286Z,92.90
2019-04-01T22:38:57.514Z,93.20
2019-04-01T22:41:25.189Z,93.00
2019-04-01T22:43:53.370Z,92.60
2019-04-01T22:46:21.576Z,93.40
2019-04-01T22:48:48.902Z,93.20
2019-04-01T22:51:16.234Z,93.10
2019-04-01T22:53:43.711Z,94.00
2019-04-01T22:56:11.125Z,93.60
2019-04-01T22:58:39.101Z,93.80
2019-04-01T23:01:06.407Z,94.10
2019-04-01T23:03:34.075Z,93.90
2019-04-01T23:06:01.714Z,93.80
2019-04-01T23:08:31.047Z,93.60
2019-04-01T23:10:58.498Z,94.00
2019-04-01T23:13:25.905Z,93.40
2019-04-01T23:15:53.207Z,93.50
2019-04-01T23:18:20.901Z,93.80
2019-04-01T23:20:48.208Z,93.80
2019-04-01T23:23:15.861Z,93.70
2019-04-01T23:25:43.484Z,93.80
2019-04-01T23:28:10.817Z,93.50
2019-04-01T23:30:38.211Z,93.40
2019-04-01T23:33:05.905Z,94.10
2019-04-01T23:35:33.998Z,94.00
2019-04-01T23:38:01.570Z,94.00
2019-04-01T23:40:28.905Z,94.00
2019-04-01T23:42:56.466Z,94.20
2019-04-01T23:45:24.966Z,94.30
2019-04-01T23:47:52.528Z,94.60
2019-04-01T23:50:20.213Z,94.60
2019-04-01T23:52:47.841Z,94.50
2019-04-01T23:55:15.435Z,94.30
2019-04-01T23:57:43.096Z,94.20
